createdAt,value
2023-02-16T00:01:43.851Z,100211.72
2023-02-16T00:04:22.417Z,100213.13
2023-02-16T00:06:50.374Z,100215.16
2023-02-16T00:09:17.978Z,100206.69
2023-02-16T00:12:05.981Z,100209.91
2023-02-16T00:14:35.394Z,100211.66
2023-02-16T00:17:02.562Z,100206.13
2023-02-16T00:19:34.334Z,100209.91
2023-02-16T00:22:01.104Z,100211.44
2023-02-16T00:24:30.196Z,100209.03
2023-02-16T00:26:58.411Z,100205.22
2023-02-16T00:29:30.879Z,100207.16
2023-02-16T00:31:59.552Z,100205.44
2023-02-16T00:34:29.786Z,100208.81
2023-02-16T00:36:57.959Z,100201.94
2023-02-16T00:39:25.687Z,100205.44
2023-02-16T00:41:58.705Z,100200.56
2023-02-16T00:44:35.039Z,100207.78
2023-02-16T00:47:06.518Z,100204.84
2023-02-16T00:49:33.332Z,100205.03
2023-02-16T00:52:00.126Z,100200.88
2023-02-16T00:54:26.860Z,100202.88
2023-02-16T00:56:53.543Z,100200.25
2023-02-16T00:59:23.103Z,100196.47
2023-02-16T01:01:50.481Z,100205.81
2023-02-16T01:04:21.118Z,100198.31
2023-02-16T01:07:06.534Z,100192.19
2023-02-16T01:09:51.743Z,100200.56
2023-02-16T01:12:21.199Z,100191.59
2023-02-16T01:14:52.324Z,100201.94
2023-02-16T01:17:19.442Z,100195.09
2023-02-16T01:19:46.256Z,100201.13
2023-02-16T01:22:13.488Z,100199.56
2023-02-16T01:24:40.237Z,100205.53
2023-02-16T01:27:11.201Z,100203.66
2023-02-16T01:29:38.203Z,100207.75
2023-02-16T01:32:05.063Z,100206.78
2023-02-16T01:34:31.897Z,100200.84
2023-02-16T01:36:58.686Z,100199.19
2023-02-16T01:39:25.438Z,100200.97
2023-02-16T01:42:07.560Z,100197.25
2023-02-16T01:44:46.557Z,100201.72
2023-02-16T01:47:27.107Z,100205.22
2023-02-16T01:49:53.864Z,100208.56
2023-02-16T01:52:37.897Z,100214.47
2023-02-16T01:55:35.184Z,100210.06
2023-02-16T01:58:08.516Z,100218.25
2023-02-16T02:00:54.733Z,100209.81
2023-02-16T02:03:54.133Z,100211.38
2023-02-16T02:06:41.142Z,100204.44
2023-02-16T02:09:51.821Z,100209.69
2023-02-16T02:12:34.857Z,100212.59
2023-02-16T02:15:01.645Z,100208.13
2023-02-16T02:17:31.568Z,100215.13
2023-02-16T02:20:08.243Z,100213.78
2023-02-16T02:23:30.511Z,100218.84
2023-02-16T02:26:35.014Z,100217.28
2023-02-16T02:29:23.467Z,100214.00
2023-02-16T02:31:56.160Z,100211.63
2023-02-16T02:34:59.657Z,100218.84
2023-02-16T02:37:32.007Z,100206.88
2023-02-16T02:40:21.680Z,100210.97
2023-02-16T02:43:09.571Z,100209.63
2023-02-16T02:45:45.659Z,100213.59
2023-02-16T02:48:12.421Z,100214.97
2023-02-16T02:51:07.497Z,100214.38
2023-02-16T02:53:37.946Z,100211.47
2023-02-16T02:56:25.975Z,100208.13
2023-02-16T02:59:17.008Z,100216.09
2023-02-16T03:01:50.051Z,100215.13
2023-02-16T03:04:20.791Z,100221.44
2023-02-16T03:06:51.108Z,100219.50
2023-02-16T03:09:19.080Z,100214.91
2023-02-16T03:12:07.203Z,100214.13
2023-02-16T03:14:45.044Z,100218.00
2023-02-16T03:17:34.198Z,100208.69
2023-02-16T03:20:23.541Z,100213.53
2023-02-16T03:23:09.812Z,100202.66
2023-02-16T03:25:57.624Z,100202.66
2023-02-16T03:28:46.397Z,100204.38
2023-02-16T03:31:20.129Z,100199.53
2023-02-16T03:33:54.563Z,100203.91
2023-02-16T03:36:27.876Z,100208.50
2023-02-16T03:38:56.538Z,100202.28
2023-02-16T03:41:25.035Z,100208.97
2023-02-16T03:43:52.077Z,100207.88
2023-02-16T03:46:19.074Z,100204.38
2023-02-16T03:48:45.833Z,100202.81
2023-02-16T03:51:12.673Z,100196.03
2023-02-16T03:53:39.446Z,100200.88
2023-02-16T03:56:06.428Z,100195.06
2023-02-16T03:58:33.553Z,100197.75
2023-02-16T04:01:00.290Z,100199.75
2023-02-16T04:03:27.367Z,100201.59
2023-02-16T04:05:54.254Z,100198.84
2023-02-16T04:08:20.981Z,100196.41
2023-02-16T04:10:47.798Z,100189.63
2023-02-16T04:13:14.738Z,100188.94
2023-02-16T04:15:41.703Z,100189.16
2023-02-16T04:18:08.563Z,100191.28
2023-02-16T04:20:35.933Z,100189.41
2023-02-16T04:23:03.175Z,100199.00
2023-02-16T04:25:30.173Z,100194.13
2023-02-16T04:27:58.791Z,100189.06
2023-02-16T04:30:31.066Z,100190.81
2023-02-16T04:32:59.363Z,100189.25
2023-02-16T04:35:26.311Z,100202.41
2023-02-16T04:37:53.067Z,100196.56
2023-02-16T04:40:19.977Z,100186.94
2023-02-16T04:42:46.890Z,100185.53
2023-02-16T04:45:14.394Z,100179.41
2023-02-16T04:47:41.460Z,100176.78
2023-02-16T04:50:08.687Z,100180.75
2023-02-16T04:52:36.864Z,100182.16
2023-02-16T04:55:05.721Z,100178.16
2023-02-16T04:57:32.709Z,100190.28
2023-02-16T04:59:59.456Z,100183.59
2023-02-16T05:02:26.385Z,100183.78
2023-02-16T05:04:53.207Z,100183.22
2023-02-16T05:07:19.986Z,100189.81
2023-02-16T05:09:46.745Z,100189.72
2023-02-16T05:12:31.968Z,100194.19
2023-02-16T05:14:58.712Z,100185.16
2023-02-16T05:17:26.728Z,100192.16
2023-02-16T05:19:56.464Z,100198.09
2023-02-16T05:22:24.175Z,100194.91
2023-02-16T05:24:51.525Z,100193.66
2023-02-16T05:27:21.559Z,100186.53
2023-02-16T05:29:48.618Z,100196.47
2023-02-16T05:32:15.627Z,100188.00
2023-02-16T05:34:44.460Z,100193.75
2023-02-16T05:37:12.236Z,100201.13
2023-02-16T05:39:39.118Z,100194.91
2023-02-16T05:42:05.829Z,100198.09
2023-02-16T05:44:32.668Z,100198.41
2023-02-16T05:46:59.401Z,100201.91
2023-02-16T05:49:26.285Z,100188.44
2023-02-16T05:51:53.163Z,100191.78
2023-02-16T05:54:20.100Z,100195.28
2023-02-16T05:56:52.962Z,100195.75
2023-02-16T05:59:20.149Z,100192.56
2023-02-16T06:01:50.974Z,100194.13
2023-02-16T06:04:18.977Z,100189.84
2023-02-16T06:06:45.925Z,100195.66
2023-02-16T06:09:12.760Z,100195.88
2023-02-16T06:11:40.138Z,100197.63
2023-02-16T06:14:13.736Z,100196.28
2023-02-16T06:16:42.888Z,100201.50
2023-02-16T06:19:10.536Z,100189.28
2023-02-16T06:21:38.557Z,100186.91
2023-02-16T06:24:07.024Z,100186.91
2023-02-16T06:26:33.955Z,100192.19
2023-02-16T06:29:08.119Z,100185.00
2023-02-16T06:31:36.632Z,100182.84
2023-02-16T06:34:04.880Z,100190.03
2023-02-16T06:36:31.977Z,100189.16
2023-02-16T06:38:58.757Z,100189.84
2023-02-16T06:41:31.824Z,100189.47
2023-02-16T06:44:07.057Z,100177.69
2023-02-16T06:46:33.930Z,100175.75
2023-02-16T06:49:01.401Z,100188.78
2023-02-16T06:51:28.431Z,100189.94
2023-02-16T06:53:55.416Z,100188.47
2023-02-16T06:56:22.973Z,100186.16
2023-02-16T06:58:49.986Z,100189.94
2023-02-16T07:01:23.059Z,100185.34
2023-02-16T07:03:51.806Z,100193.50
2023-02-16T07:06:19.438Z,100188.34
2023-02-16T07:08:46.517Z,100186.69
2023-02-16T07:11:13.879Z,100181.63
2023-02-16T07:13:40.696Z,100176.25
2023-02-16T07:16:08.063Z,100170.66
2023-02-16T07:18:35.004Z,100181.28
2023-02-16T07:21:02.762Z,100184.88
2023-02-16T07:23:29.816Z,100175.56
2023-02-16T07:25:56.543Z,100171.88
2023-02-16T07:28:23.561Z,100176.53
2023-02-16T07:30:51.178Z,100170.97
2023-02-16T07:33:18.809Z,100180.38
2023-02-16T07:35:45.682Z,100172.44
2023-02-16T07:38:13.041Z,100175.84
2023-02-16T07:40:40.098Z,100174.75
2023-02-16T07:43:07.877Z,100171.47
2023-02-16T07:45:35.156Z,100166.63
2023-02-16T07:48:02.985Z,100181.44
2023-02-16T07:50:30.257Z,100178.50
2023-02-16T07:52:57.257Z,100173.19
2023-02-16T07:55:24.314Z,100168.78
2023-02-16T07:57:55.398Z,100171.59
2023-02-16T08:00:22.466Z,100166.91
2023-02-16T08:02:49.828Z,100166.91
2023-02-16T08:05:16.987Z,100172.88
2023-02-16T08:07:47.880Z,100168.66
2023-02-16T08:10:15.721Z,100162.81
2023-02-16T08:12:43.148Z,100165.53
2023-02-16T08:15:11.031Z,100165.72
2023-02-16T08:17:37.996Z,100167.63
2023-02-16T08:20:07.734Z,100167.22
2023-02-16T08:22:35.224Z,100167.06
2023-02-16T08:25:02.251Z,100162.81
2023-02-16T08:27:30.770Z,100163.50
2023-02-16T08:29:57.734Z,100162.91
2023-02-16T08:32:24.713Z,100164.50
2023-02-16T08:34:52.281Z,100160.38
2023-02-16T08:37:22.604Z,100167.03
2023-02-16T08:39:49.568Z,100159.41
2023-02-16T08:42:17.448Z,100159.41
2023-02-16T08:44:44.753Z,100163.19
2023-02-16T08:47:21.113Z,100155.13
2023-02-16T08:49:47.949Z,100156.84
2023-02-16T08:52:14.898Z,100157.13
2023-02-16T08:54:42.127Z,100156.59
2023-02-16T08:57:11.926Z,100148.34
2023-02-16T08:59:39.004Z,100146.00
2023-02-16T09:02:06.059Z,100150.63
2023-02-16T09:04:33.561Z,100151.75
2023-02-16T09:07:22.383Z,100153.84
2023-02-16T09:09:53.004Z,100147.91
2023-02-16T09:12:19.855Z,100152.06
2023-02-16T09:14:46.902Z,100146.03
2023-02-16T09:17:14.456Z,100151.41
2023-02-16T09:19:43.552Z,100140.75
2023-02-16T09:22:10.706Z,100133.22
2023-02-16T09:24:37.763Z,100134.63
2023-02-16T09:27:04.665Z,100138.44
2023-02-16T09:29:31.479Z,100142.41
2023-02-16T09:31:58.767Z,100132.91
2023-02-16T09:34:27.877Z,100136.75
2023-02-16T09:36:54.799Z,100130.09
2023-02-16T09:39:21.641Z,100131.69
2023-02-16T09:41:54.053Z,100135.34
2023-02-16T09:44:33.628Z,100127.25
2023-02-16T09:47:06.772Z,100130.66
2023-02-16T09:49:41.310Z,100125.94
2023-02-16T09:52:08.058Z,100127.59
2023-02-16T09:54:43.891Z,100125.09
2023-02-16T09:57:16.465Z,100133.34
2023-02-16T09:59:43.280Z,100130.25
2023-02-16T10:02:51.959Z,100135.50
2023-02-16T10:05:35.115Z,100130.78
2023-02-16T10:08:14.468Z,100132.63
2023-02-16T10:10:49.151Z,100135.97
2023-02-16T10:13:19.316Z,100134.50
2023-02-16T10:15:49.775Z,100132.38
2023-02-16T10:18:31.526Z,100123.97
2023-02-16T10:21:02.528Z,100119.41
2023-02-16T10:23:44.571Z,100118.84
2023-02-16T10:26:18.040Z,100114.72
2023-02-16T10:28:55.488Z,100115.28
2023-02-16T10:31:39.116Z,100115.78
2023-02-16T10:34:05.906Z,100112.59
2023-02-16T10:36:51.923Z,100106.28
2023-02-16T10:39:30.253Z,100111.38
2023-02-16T10:42:16.520Z,100104.38
2023-02-16T10:44:52.534Z,100107.72
2023-02-16T10:47:35.712Z,100113.69
2023-02-16T10:50:03.751Z,100104.03
2023-02-16T10:52:37.444Z,100113.44
2023-02-16T10:55:04.547Z,100110.41
2023-02-16T10:57:33.002Z,100109.28
2023-02-16T11:00:08.262Z,100107.69
2023-02-16T11:02:40.971Z,100109.09
2023-02-16T11:05:26.288Z,100116.63
2023-02-16T11:07:56.662Z,100108.94
2023-02-16T11:10:46.243Z,100110.16
2023-02-16T11:13:25.075Z,100105.63
2023-02-16T11:15:55.016Z,100099.59
2023-02-16T11:18:41.646Z,100099.91
2023-02-16T11:21:10.542Z,100099.75
2023-02-16T11:23:43.019Z,100092.13
2023-02-16T11:26:10.143Z,100093.22
2023-02-16T11:28:44.074Z,100097.13
2023-02-16T11:31:13.666Z,100102.16
2023-02-16T11:33:42.707Z,100091.69
2023-02-16T11:36:43.555Z,100089.91
2023-02-16T11:39:27.207Z,100095.28
2023-02-16T11:41:57.739Z,100090.56
2023-02-16T11:44:48.802Z,100078.56
2023-02-16T11:47:38.319Z,100071.31
2023-02-16T11:50:29.029Z,100074.97
2023-02-16T11:53:09.401Z,100059.59
2023-02-16T11:55:43.203Z,100066.41
2023-02-16T11:58:21.251Z,100078.31
2023-02-16T12:01:16.615Z,100068.47
2023-02-16T12:03:59.971Z,100076.78
2023-02-16T12:07:03.817Z,100071.75
2023-02-16T12:09:45.594Z,100080.84
2023-02-16T12:12:42.072Z,100079.72
2023-02-16T12:15:37.857Z,100065.72
2023-02-16T12:18:19.828Z,100069.56
2023-02-16T12:20:58.971Z,100084.81
2023-02-16T12:23:32.006Z,100074.84
2023-02-16T12:26:17.052Z,100080.84
2023-02-16T12:28:58.965Z,100083.19
2023-02-16T12:31:47.570Z,100093.94
2023-02-16T12:34:22.518Z,100078.59
2023-02-16T12:37:18.659Z,100089.91
2023-02-16T12:40:13.740Z,100083.88
2023-02-16T12:43:32.020Z,100093.38
2023-02-16T12:46:05.174Z,100083.88
2023-02-16T12:48:32.908Z,100087.59
2023-02-16T12:51:03.437Z,100095.22
2023-02-16T12:53:42.013Z,100094.09
2023-02-16T12:56:18.595Z,100085.78
2023-02-16T12:58:53.373Z,100096.63
2023-02-16T13:01:27.584Z,100097.16
2023-02-16T13:04:14.423Z,100089.47
2023-02-16T13:06:58.040Z,100092.47
2023-02-16T13:09:40.640Z,100077.22
2023-02-16T13:12:17.695Z,100077.34
2023-02-16T13:14:52.210Z,100078.31
2023-02-16T13:17:32.007Z,100094.06
2023-02-16T13:21:05.975Z,100103.16
2023-02-16T13:23:34.424Z,100090.38
2023-02-16T13:26:19.036Z,100081.72
2023-02-16T13:29:04.516Z,100093.34
2023-02-16T13:32:06.209Z,100097.22
2023-02-16T13:34:48.206Z,100099.56
2023-02-16T13:37:20.912Z,100107.63
2023-02-16T13:39:50.263Z,100090.91
2023-02-16T13:42:41.540Z,100098.94
2023-02-16T13:45:20.364Z,100105.25
2023-02-16T13:47:47.558Z,100095.56
2023-02-16T13:50:23.940Z,100089.72
2023-02-16T13:52:56.803Z,100094.06
2023-02-16T13:55:26.961Z,100100.53
2023-02-16T13:58:04.486Z,100099.28
2023-02-16T14:00:33.195Z,100095.66
2023-02-16T14:03:12.160Z,100105.78
2023-02-16T14:05:42.722Z,100111.19
2023-02-16T14:08:19.024Z,100098.81
2023-02-16T14:10:57.013Z,100102.19
2023-02-16T14:13:34.421Z,100102.81
2023-02-16T14:16:22.498Z,100105.16
2023-02-16T14:19:19.401Z,100104.56
2023-02-16T14:21:48.285Z,100098.25
2023-02-16T14:24:30.775Z,100104.47
2023-02-16T14:27:03.139Z,100096.31
2023-02-16T14:30:05.021Z,100111.28
2023-02-16T14:32:38.678Z,100109.59
2023-02-16T14:35:14.381Z,100112.19
2023-02-16T14:38:03.629Z,100119.34
2023-02-16T14:40:57.895Z,100113.78
2023-02-16T14:43:33.667Z,100113.31
2023-02-16T14:46:22.409Z,100111.53
2023-02-16T14:52:08.921Z,100118.31
2023-02-16T14:54:48.062Z,100114.66
2023-02-16T14:57:24.116Z,100111.72
2023-02-16T14:59:59.793Z,100106.66
2023-02-16T15:05:35.222Z,100110.91
2023-02-16T15:08:23.182Z,100107.84
2023-02-16T15:10:56.730Z,100108.19
2023-02-16T15:13:45.205Z,100110.28
2023-02-16T15:16:17.166Z,100110.13
2023-02-16T15:18:53.818Z,100112.06
2023-02-16T15:21:30.822Z,100110.13
2023-02-16T15:24:00.507Z,100106.66
2023-02-16T15:26:36.027Z,100115.22
2023-02-16T15:29:33.403Z,100113.63
2023-02-16T15:32:00.718Z,100112.91
2023-02-16T15:34:33.383Z,100116.41
2023-02-16T15:37:02.593Z,100116.22
2023-02-16T15:39:49.918Z,100113.00
2023-02-16T15:42:28.249Z,100112.03
2023-02-16T15:44:55.143Z,100110.78
2023-02-16T15:47:24.820Z,100115.88
2023-02-16T15:49:52.783Z,100110.59
2023-02-16T15:52:26.699Z,100110.50
2023-02-16T15:54:53.931Z,100105.84
2023-02-16T15:57:32.087Z,100110.91
2023-02-16T16:00:06.125Z,100111.28
2023-02-16T16:02:41.622Z,100114.22
2023-02-16T16:05:20.893Z,100125.16
2023-02-16T16:07:48.684Z,100126.16
2023-02-16T16:10:20.775Z,100136.56
2023-02-16T16:12:49.802Z,100131.16
2023-02-16T16:15:22.985Z,100141.75
2023-02-16T16:17:51.736Z,100135.94
2023-02-16T16:20:32.873Z,100139.22
2023-02-16T16:23:07.358Z,100135.94
2023-02-16T16:25:34.193Z,100133.69
2023-02-16T16:28:04.610Z,100129.09
2023-02-16T16:30:37.594Z,100138.25
2023-02-16T16:33:10.363Z,100133.09
2023-02-16T16:35:40.938Z,100132.91
2023-02-16T16:38:23.759Z,100137.28
2023-02-16T16:40:54.761Z,100132.31
2023-02-16T16:43:27.001Z,100133.66
2023-02-16T16:46:17.722Z,100134.75
2023-02-16T16:48:51.651Z,100132.59
2023-02-16T16:51:43.019Z,100132.78
2023-02-16T16:54:33.245Z,100136.16
2023-02-16T16:57:00.170Z,100134.69
2023-02-16T16:59:26.971Z,100139.31
2023-02-16T17:01:53.929Z,100132.31
2023-02-16T17:04:22.608Z,100140.53
2023-02-16T17:06:59.568Z,100144.50
2023-02-16T17:09:26.355Z,100141.84
2023-02-16T17:11:53.299Z,100141.84
2023-02-16T17:14:20.932Z,100140.88
2023-02-16T17:16:52.675Z,100140.88
2023-02-16T17:19:20.596Z,100143.03
2023-02-16T17:21:48.333Z,100144.75
2023-02-16T17:24:16.336Z,100144.75
2023-02-16T17:26:43.417Z,100156.63
2023-02-16T17:29:10.339Z,100150.00
2023-02-16T17:31:37.433Z,100148.25
2023-02-16T17:34:04.598Z,100149.81
2023-02-16T17:36:31.421Z,100151.34
2023-02-16T17:38:58.343Z,100157.03
2023-02-16T17:41:28.063Z,100158.22
2023-02-16T17:43:55.421Z,100148.88
2023-02-16T17:46:23.421Z,100150.50
2023-02-16T17:48:53.577Z,100158.41
2023-02-16T17:51:22.688Z,100166.16
2023-02-16T17:53:49.579Z,100157.53
2023-02-16T17:56:19.429Z,100160.28
2023-02-16T17:58:46.549Z,100155.19
2023-02-16T18:01:15.829Z,100160.25
2023-02-16T18:03:42.955Z,100167.50
2023-02-16T18:06:17.233Z,100165.75
2023-02-16T18:08:44.967Z,100165.13
2023-02-16T18:11:11.883Z,100172.06
2023-02-16T18:13:39.489Z,100174.59
2023-02-16T18:16:07.907Z,100181.19
2023-02-16T18:18:39.132Z,100179.44
2023-02-16T18:21:09.310Z,100184.03
2023-02-16T18:23:37.527Z,100181.84
2023-02-16T18:26:05.726Z,100187.88
2023-02-16T18:28:35.225Z,100180.97
2023-02-16T18:31:09.000Z,100183.19
2023-02-16T18:33:36.423Z,100187.34
2023-02-16T18:36:04.883Z,100180.31
2023-02-16T18:38:32.076Z,100184.94
2023-02-16T18:40:59.113Z,100177.13
2023-02-16T18:43:25.980Z,100179.66
2023-02-16T18:45:55.627Z,100172.31
2023-02-16T18:48:22.631Z,100174.84
2023-02-16T18:50:49.667Z,100170.03
2023-02-16T18:53:16.625Z,100168.38
2023-02-16T18:55:43.531Z,100169.47
2023-02-16T18:58:14.021Z,100165.41
2023-02-16T19:00:42.043Z,100172.97
2023-02-16T19:03:09.296Z,100179.22
2023-02-16T19:05:36.270Z,100180.31
2023-02-16T19:08:03.151Z,100177.91
2023-02-16T19:10:30.342Z,100177.91
2023-02-16T19:12:57.197Z,100173.63
2023-02-16T19:15:24.140Z,100171.53
2023-02-16T19:17:51.506Z,100167.03
2023-02-16T19:20:19.831Z,100164.06
2023-02-16T19:22:48.678Z,100159.78
2023-02-16T19:25:16.336Z,100160.31
2023-02-16T19:27:43.946Z,100164.28
2023-02-16T19:30:12.246Z,100154.41
2023-02-16T19:32:41.207Z,100155.72
2023-02-16T19:35:09.635Z,100150.69
2023-02-16T19:37:36.596Z,100152.22
2023-02-16T19:40:06.855Z,100151.13
2023-02-16T19:42:33.780Z,100159.47
2023-02-16T19:45:00.678Z,100152.56
2023-02-16T19:47:27.555Z,100152.56
2023-02-16T19:49:54.326Z,100155.09
2023-02-16T19:52:21.185Z,100154.19
2023-02-16T19:54:47.948Z,100145.63
2023-02-16T19:57:14.770Z,100148.94
2023-02-16T19:59:41.648Z,100146.50
2023-02-16T20:02:11.346Z,100143.44
2023-02-16T20:04:38.405Z,100147.50
2023-02-16T20:07:05.868Z,100143.44
2023-02-16T20:09:32.609Z,100142.47
2023-02-16T20:11:59.554Z,100142.03
2023-02-16T20:14:26.246Z,100147.19
2023-02-16T20:16:53.090Z,100153.25
2023-02-16T20:19:19.931Z,100141.06
2023-02-16T20:21:46.836Z,100149.84
2023-02-16T20:24:14.356Z,100148.50
2023-02-16T20:26:44.201Z,100154.88
2023-02-16T20:29:13.279Z,100148.72
2023-02-16T20:31:48.964Z,100143.91
2023-02-16T20:34:16.001Z,100146.75
2023-02-16T20:36:42.791Z,100147.19
2023-02-16T20:39:09.784Z,100140.38
2023-02-16T20:41:37.292Z,100141.50
2023-02-16T20:44:04.893Z,100143.59
2023-02-16T20:46:31.824Z,100134.69
2023-02-16T20:48:58.784Z,100146.09
2023-02-16T20:51:26.117Z,100140.63
2023-02-16T20:53:52.893Z,100137.00
2023-02-16T20:56:22.801Z,100132.50
2023-02-16T20:58:51.491Z,100135.13
2023-02-16T21:01:23.853Z,100127.00
2023-02-16T21:03:51.943Z,100133.38
2023-02-16T21:06:19.717Z,100138.41
2023-02-16T21:08:46.699Z,100134.03
2023-02-16T21:11:14.553Z,100134.16
2023-02-16T21:13:41.919Z,100136.91
2023-02-16T21:16:09.313Z,100136.34
2023-02-16T21:18:39.382Z,100134.22
2023-02-16T21:21:07.927Z,100132.16
2023-02-16T21:23:34.689Z,100131.81
2023-02-16T21:26:04.520Z,100132.22
2023-02-16T21:28:31.513Z,100135.53
2023-02-16T21:31:04.283Z,100136.81
2023-02-16T21:33:31.154Z,100138.25
2023-02-16T21:36:34.238Z,100124.53
2023-02-16T21:39:02.921Z,100126.41
2023-02-16T21:41:29.945Z,100125.22
2023-02-16T21:44:18.115Z,100131.34
2023-02-16T21:46:47.161Z,100128.31
2023-02-16T21:49:19.838Z,100134.22
2023-02-16T21:51:48.361Z,100133.25
2023-02-16T21:54:18.485Z,100127.41
2023-02-16T21:56:50.383Z,100119.84
2023-02-16T21:59:19.466Z,100124.59
2023-02-16T22:01:51.126Z,100120.09
2023-02-16T22:04:21.685Z,100119.09
2023-02-16T22:06:49.714Z,100124.13
2023-02-16T22:09:21.844Z,100119.19
2023-02-16T22:11:49.694Z,100120.63
2023-02-16T22:14:16.998Z,100121.59
2023-02-16T22:16:46.116Z,100126.13
2023-02-16T22:19:16.926Z,100133.88
2023-02-16T22:21:47.621Z,100134.00
2023-02-16T22:24:17.027Z,100128.31
2023-02-16T22:26:44.591Z,100125.97
2023-02-16T22:29:12.183Z,100126.19
2023-02-16T22:31:43.258Z,100130.66
2023-02-16T22:34:15.912Z,100124.63
2023-02-16T22:36:43.121Z,100122.75
2023-02-16T22:39:12.784Z,100122.97
2023-02-16T22:41:40.088Z,100122.97
2023-02-16T22:44:07.231Z,100118.13
2023-02-16T22:46:37.174Z,100115.63
2023-02-16T22:49:03.933Z,100113.75
2023-02-16T22:51:31.385Z,100107.06
2023-02-16T22:53:59.169Z,100107.19
2023-02-16T22:56:27.011Z,100116.38
2023-02-16T22:58:57.517Z,100108.03
2023-02-16T23:01:26.457Z,100111.44
2023-02-16T23:03:57.378Z,100115.03
2023-02-16T23:06:31.205Z,100119.44
2023-02-16T23:09:00.648Z,100113.19
2023-02-16T23:11:28.260Z,100109.78
2023-02-16T23:13:55.202Z,100103.75
2023-02-16T23:16:24.850Z,100114.06
2023-02-16T23:18:52.011Z,100107.72
2023-02-16T23:21:24.803Z,100115.00
2023-02-16T23:23:53.097Z,100115.34
2023-02-16T23:26:22.213Z,100114.91
2023-02-16T23:28:54.126Z,100113.63
2023-02-16T23:31:22.073Z,100112.53
2023-02-16T23:33:50.019Z,100112.75
2023-02-16T23:36:16.822Z,100110.34
2023-02-16T23:38:43.667Z,100117.72
2023-02-16T23:41:14.890Z,100113.66
2023-02-16T23:43:42.237Z,100117.50
2023-02-16T23:46:09.687Z,100116.53
2023-02-16T23:48:38.192Z,100111.25
2023-02-16T23:51:05.473Z,100113.66
2023-02-16T23:53:32.253Z,100110.25
2023-02-16T23:56:03.598Z,100113.44
2023-02-16T23:58:32.907Z,100116.50
